sensor_id;sensor_type;location;lat;lon;timestamp;temperature;humidity
8882;DHT22;4477;48.736;9.176;2022-09-12T00:01:51;9.10;99.90
8882;DHT22;4477;48.736;9.176;2022-09-12T00:04:18;8.90;99.90
8882;DHT22;4477;48.736;9.176;2022-09-12T00:06:46;8.80;99.90
8882;DHT22;4477;48.736;9.176;2022-09-12T00:09:14;8.80;99.90
8882;DHT22;4477;48.736;9.176;2022-09-12T00:11:43;9.00;99.90
8882;DHT22;4477;48.736;9.176;2022-09-12T00:14:13;9.10;99.90
8882;DHT22;4477;48.736;9.176;2022-09-12T00:16:41;8.90;99.90
8882;DHT22;4477;48.736;9.176;2022-09-12T00:19:08;8.80;99.90
8882;DHT22;4477;48.736;9.176;2022-09-12T00:21:37;8.80;99.90
8882;DHT22;4477;48.736;9.176;2022-09-12T00:24:06;8.80;99.90
8882;DHT22;4477;48.736;9.176;2022-09-12T00:26:33;8.70;99.90
8882;DHT22;4477;48.736;9.176;2022-09-12T00:28:59;8.60;99.90
8882;DHT22;4477;48.736;9.176;2022-09-12T00:31:26;8.60;99.90
8882;DHT22;4477;48.736;9.176;2022-09-12T00:33:56;8.60;99.90
8882;DHT22;4477;48.736;9.176;2022-09-12T00:36:24;8.50;99.90
8882;DHT22;4477;48.736;9.176;2022-09-12T00:38:51;8.50;99.90
8882;DHT22;4477;48.736;9.176;2022-09-12T00:41:22;8.50;99.90
8882;DHT22;4477;48.736;9.176;2022-09-12T00:43:52;8.40;99.90
8882;DHT22;4477;48.736;9.176;2022-09-12T00:46:28;8.40;99.90
8882;DHT22;4477;48.736;9.176;2022-09-12T00:49:00;8.30;99.90
8882;DHT22;4477;48.736;9.176;2022-09-12T00:51:30;8.30;99.90
8882;DHT22;4477;48.736;9.176;2022-09-12T00:53:59;8.30;99.90
8882;DHT22;4477;48.736;9.176;2022-09-12T00:56:29;8.40;99.90
8882;DHT22;4477;48.736;9.176;2022-09-12T00:59:00;8.50;99.90
8882;DHT22;4477;48.736;9.176;2022-09-12T01:01:30;8.70;99.90
8882;DHT22;4477;48.736;9.176;2022-09-12T01:03:57;8.80;99.90
8882;DHT22;4477;48.736;9.176;2022-09-12T01:06:26;8.70;99.90
8882;DHT22;4477;48.736;9.176;2022-09-12T01:08:55;8.60;99.90
8882;DHT22;4477;48.736;9.176;2022-09-12T01:11:23;8.40;99.90
8882;DHT22;4477;48.736;9.176;2022-09-12T01:13:53;8.30;99.90
8882;DHT22;4477;48.736;9.176;2022-09-12T01:16:20;8.30;99.90
8882;DHT22;4477;48.736;9.176;2022-09-12T01:19:00;8.20;99.90
8882;DHT22;4477;48.736;9.176;2022-09-12T01:21:35;8.30;99.90
8882;DHT22;4477;48.736;9.176;2022-09-12T01:32:58;8.20;99.90
8882;DHT22;4477;48.736;9.176;2022-09-12T01:35:33;8.10;99.90
8882;DHT22;4477;48.736;9.176;2022-09-12T01:38:09;8.10;99.90
8882;DHT22;4477;48.736;9.176;2022-09-12T01:40:44;8.10;99.90
8882;DHT22;4477;48.736;9.176;2022-09-12T01:43:18;8.10;99.90
8882;DHT22;4477;48.736;9.176;2022-09-12T01:45:57;8.20;99.90
8882;DHT22;4477;48.736;9.176;2022-09-12T01:48:29;8.10;99.90
8882;DHT22;4477;48.736;9.176;2022-09-12T01:51:05;8.10;99.90
8882;DHT22;4477;48.736;9.176;2022-09-12T01:53:37;8.20;99.90
8882;DHT22;4477;48.736;9.176;2022-09-12T01:56:08;8.30;99.90
8882;DHT22;4477;48.736;9.176;2022-09-12T01:58:41;8.40;99.90
8882;DHT22;4477;48.736;9.176;2022-09-12T02:01:12;8.50;99.90
8882;DHT22;4477;48.736;9.176;2022-09-12T02:03:45;8.50;99.90
8882;DHT22;4477;48.736;9.176;2022-09-12T02:06:17;8.40;99.90
8882;DHT22;4477;48.736;9.176;2022-09-12T02:08:48;8.30;99.90
8882;DHT22;4477;48.736;9.176;2022-09-12T02:11:17;8.20;99.90
8882;DHT22;4477;48.736;9.176;2022-09-12T02:13:48;8.30;99.90
8882;DHT22;4477;48.736;9.176;2022-09-12T02:16:23;8.30;99.90
8882;DHT22;4477;48.736;9.176;2022-09-12T02:18:54;8.30;99.90
8882;DHT22;4477;48.736;9.176;2022-09-12T02:21:24;8.30;99.90
8882;DHT22;4477;48.736;9.176;2022-09-12T02:23:54;8.30;99.90
8882;DHT22;4477;48.736;9.176;2022-09-12T02:26:24;8.30;99.90
8882;DHT22;4477;48.736;9.176;2022-09-12T02:28:54;8.30;99.90
8882;DHT22;4477;48.736;9.176;2022-09-12T02:31:26;8.30;99.90
8882;DHT22;4477;48.736;9.176;2022-09-12T02:34:07;8.30;99.90
8882;DHT22;4477;48.736;9.176;2022-09-12T02:36:40;8.30;99.90
8882;DHT22;4477;48.736;9.176;2022-09-12T02:39:11;8.30;99.90
8882;DHT22;4477;48.736;9.176;2022-09-12T02:41:38;8.30;99.90
8882;DHT22;4477;48.736;9.176;2022-09-12T02:44:05;8.30;99.90
8882;DHT22;4477;48.736;9.176;2022-09-12T02:46:37;8.30;99.90
8882;DHT22;4477;48.736;9.176;2022-09-12T02:49:06;8.30;99.90
8882;DHT22;4477;48.736;9.176;2022-09-12T02:51:33;8.20;99.90
8882;DHT22;4477;48.736;9.176;2022-09-12T02:54:00;8.30;99.90
8882;DHT22;4477;48.736;9.176;2022-09-12T02:56:29;8.10;99.90
8882;DHT22;4477;48.736;9.176;2022-09-12T02:59:00;8.10;99.90
8882;DHT22;4477;48.736;9.176;2022-09-12T03:01:37;8.10;99.90
8882;DHT22;4477;48.736;9.176;2022-09-12T03:04:22;8.00;99.90
8882;DHT22;4477;48.736;9.176;2022-09-12T03:07:00;8.00;99.90
8882;DHT22;4477;48.736;9.176;2022-09-12T03:09:35;8.00;99.90
8882;DHT22;4477;48.736;9.176;2022-09-12T03:12:10;8.00;99.90
8882;DHT22;4477;48.736;9.176;2022-09-12T03:14:58;8.10;99.90
8882;DHT22;4477;48.736;9.176;2022-09-12T03:17:36;8.10;99.90
8882;DHT22;4477;48.736;9.176;2022-09-12T03:20:10;8.00;99.90
8882;DHT22;4477;48.736;9.176;2022-09-12T03:22:48;7.90;99.90
8882;DHT22;4477;48.736;9.176;2022-09-12T03:25:19;7.80;99.90
8882;DHT22;4477;48.736;9.176;2022-09-12T03:27:52;7.60;99.90
8882;DHT22;4477;48.736;9.176;2022-09-12T03:30:19;7.60;99.90
8882;DHT22;4477;48.736;9.176;2022-09-12T03:32:47;7.60;99.90
8882;DHT22;4477;48.736;9.176;2022-09-12T03:35:18;7.60;99.90
8882;DHT22;4477;48.736;9.176;2022-09-12T03:37:46;7.60;99.90
8882;DHT22;4477;48.736;9.176;2022-09-12T03:40:13;7.70;99.90
8882;DHT22;4477;48.736;9.176;2022-09-12T03:42:40;7.60;99.90
8882;DHT22;4477;48.736;9.176;2022-09-12T03:45:08;7.60;99.90
8882;DHT22;4477;48.736;9.176;2022-09-12T03:47:35;7.70;99.90
8882;DHT22;4477;48.736;9.176;2022-09-12T03:50:03;7.70;99.90
8882;DHT22;4477;48.736;9.176;2022-09-12T03:52:32;7.60;99.90
8882;DHT22;4477;48.736;9.176;2022-09-12T03:54:58;7.60;99.90
8882;DHT22;4477;48.736;9.176;2022-09-12T03:57:25;7.70;99.90
8882;DHT22;4477;48.736;9.176;2022-09-12T03:59:52;7.80;99.90
8882;DHT22;4477;48.736;9.176;2022-09-12T04:02:19;7.90;99.90
8882;DHT22;4477;48.736;9.176;2022-09-12T04:04:46;7.80;99.90
8882;DHT22;4477;48.736;9.176;2022-09-12T04:07:14;7.70;99.90
8882;DHT22;4477;48.736;9.176;2022-09-12T04:09:44;7.60;99.90
8882;DHT22;4477;48.736;9.176;2022-09-12T04:12:11;7.50;99.90
8882;DHT22;4477;48.736;9.176;2022-09-12T04:14:38;7.50;99.90
8882;DHT22;4477;48.736;9.176;2022-09-12T04:17:05;7.50;99.90
8882;DHT22;4477;48.736;9.176;2022-09-12T04:19:32;7.50;99.90
8882;DHT22;4477;48.736;9.176;2022-09-12T04:21:59;7.40;99.90
8882;DHT22;4477;48.736;9.176;2022-09-12T04:24:26;7.40;99.90
8882;DHT22;4477;48.736;9.176;2022-09-12T04:26:54;7.40;99.90
8882;DHT22;4477;48.736;9.176;2022-09-12T04:29:21;7.40;99.90
8882;DHT22;4477;48.736;9.176;2022-09-12T04:31:48;7.40;99.90
8882;DHT22;4477;48.736;9.176;2022-09-12T04:34:15;7.50;99.90
8882;DHT22;4477;48.736;9.176;2022-09-12T04:36:42;7.50;99.90
8882;DHT22;4477;48.736;9.176;2022-09-12T04:39:09;7.50;99.90
8882;DHT22;4477;48.736;9.176;2022-09-12T04:41:38;7.40;99.90
8882;DHT22;4477;48.736;9.176;2022-09-12T04:44:10;7.40;99.90
8882;DHT22;4477;48.736;9.176;2022-09-12T04:46:39;7.40;99.90
8882;DHT22;4477;48.736;9.176;2022-09-12T04:49:06;7.40;99.90
8882;DHT22;4477;48.736;9.176;2022-09-12T04:51:35;7.40;99.90
8882;DHT22;4477;48.736;9.176;2022-09-12T04:54:04;7.40;99.90
8882;DHT22;4477;48.736;9.176;2022-09-12T04:56:32;7.40;99.90
8882;DHT22;4477;48.736;9.176;2022-09-12T04:59:00;7.40;99.90
8882;DHT22;4477;48.736;9.176;2022-09-12T05:01:28;7.40;99.90
8882;DHT22;4477;48.736;9.176;2022-09-12T05:03:56;7.50;99.90
8882;DHT22;4477;48.736;9.176;2022-09-12T05:06:26;7.50;99.90
8882;DHT22;4477;48.736;9.176;2022-09-12T05:08:55;7.50;99.90
8882;DHT22;4477;48.736;9.176;2022-09-12T05:11:24;7.50;99.90
8882;DHT22;4477;48.736;9.176;2022-09-12T05:13:51;7.70;99.90
8882;DHT22;4477;48.736;9.176;2022-09-12T05:16:19;7.70;99.90
8882;DHT22;4477;48.736;9.176;2022-09-12T05:18:48;7.80;99.90
8882;DHT22;4477;48.736;9.176;2022-09-12T05:21:17;7.80;99.90
8882;DHT22;4477;48.736;9.176;2022-09-12T05:23:45;7.80;99.90
8882;DHT22;4477;48.736;9.176;2022-09-12T05:26:14;7.90;99.90
8882;DHT22;4477;48.736;9.176;2022-09-12T05:28:42;8.10;99.90
8882;DHT22;4477;48.736;9.176;2022-09-12T05:31:12;8.30;99.90
8882;DHT22;4477;48.736;9.176;2022-09-12T05:33:41;8.60;99.90
8882;DHT22;4477;48.736;9.176;2022-09-12T05:36:12;8.70;99.90
8882;DHT22;4477;48.736;9.176;2022-09-12T05:38:40;8.80;99.90
8882;DHT22;4477;48.736;9.176;2022-09-12T05:41:08;8.90;99.90
8882;DHT22;4477;48.736;9.176;2022-09-12T05:43:37;9.00;99.90
8882;DHT22;4477;48.736;9.176;2022-09-12T05:46:06;9.30;99.90
8882;DHT22;4477;48.736;9.176;2022-09-12T05:48:33;9.50;99.90
8882;DHT22;4477;48.736;9.176;2022-09-12T05:51:02;9.60;99.90
8882;DHT22;4477;48.736;9.176;2022-09-12T05:53:33;9.80;99.90
8882;DHT22;4477;48.736;9.176;2022-09-12T05:56:04;10.00;99.90
8882;DHT22;4477;48.736;9.176;2022-09-12T05:58:32;10.10;99.90
8882;DHT22;4477;48.736;9.176;2022-09-12T06:01:03;10.20;99.90
8882;DHT22;4477;48.736;9.176;2022-09-12T06:03:32;10.30;99.90
8882;DHT22;4477;48.736;9.176;2022-09-12T06:06:03;10.40;99.90
8882;DHT22;4477;48.736;9.176;2022-09-12T06:08:31;10.50;99.90
8882;DHT22;4477;48.736;9.176;2022-09-12T06:11:00;10.70;99.90
8882;DHT22;4477;48.736;9.176;2022-09-12T06:13:27;10.80;99.90
8882;DHT22;4477;48.736;9.176;2022-09-12T06:16:02;10.80;99.90
8882;DHT22;4477;48.736;9.176;2022-09-12T06:18:30;10.90;99.90
8882;DHT22;4477;48.736;9.176;2022-09-12T06:20:57;10.90;99.90
8882;DHT22;4477;48.736;9.176;2022-09-12T06:23:23;11.10;99.90
8882;DHT22;4477;48.736;9.176;2022-09-12T06:25:51;11.10;99.90
8882;DHT22;4477;48.736;9.176;2022-09-12T06:28:19;11.20;99.90
8882;DHT22;4477;48.736;9.176;2022-09-12T06:30:46;11.30;99.90
8882;DHT22;4477;48.736;9.176;2022-09-12T06:33:13;11.40;99.90
8882;DHT22;4477;48.736;9.176;2022-09-12T06:35:40;11.50;99.90
8882;DHT22;4477;48.736;9.176;2022-09-12T06:38:07;11.60;99.90
8882;DHT22;4477;48.736;9.176;2022-09-12T06:40:40;11.80;99.90
8882;DHT22;4477;48.736;9.176;2022-09-12T06:43:09;11.70;99.90
8882;DHT22;4477;48.736;9.176;2022-09-12T06:45:38;11.80;99.90
8882;DHT22;4477;48.736;9.176;2022-09-12T06:48:05;11.90;99.90
8882;DHT22;4477;48.736;9.176;2022-09-12T06:50:32;12.00;99.90
8882;DHT22;4477;48.736;9.176;2022-09-12T06:52:58;12.10;99.90
8882;DHT22;4477;48.736;9.176;2022-09-12T06:55:25;12.30;99.90
8882;DHT22;4477;48.736;9.176;2022-09-12T06:57:53;12.20;99.90
8882;DHT22;4477;48.736;9.176;2022-09-12T07:00:20;12.30;99.90
8882;DHT22;4477;48.736;9.176;2022-09-12T07:02:52;12.30;99.90
8882;DHT22;4477;48.736;9.176;2022-09-12T07:05:19;12.50;99.90
8882;DHT22;4477;48.736;9.176;2022-09-12T07:07:47;12.70;99.90
8882;DHT22;4477;48.736;9.176;2022-09-12T07:10:14;12.90;99.90
8882;DHT22;4477;48.736;9.176;2022-09-12T07:12:40;13.10;99.90
8882;DHT22;4477;48.736;9.176;2022-09-12T07:15:08;13.20;99.90
8882;DHT22;4477;48.736;9.176;2022-09-12T07:17:36;13.50;99.90
8882;DHT22;4477;48.736;9.176;2022-09-12T07:20:05;13.60;99.90
8882;DHT22;4477;48.736;9.176;2022-09-12T07:22:32;13.80;99.90
8882;DHT22;4477;48.736;9.176;2022-09-12T07:24:58;14.00;99.90
8882;DHT22;4477;48.736;9.176;2022-09-12T07:27:25;14.30;99.90
8882;DHT22;4477;48.736;9.176;2022-09-12T07:29:52;14.60;99.90
8882;DHT22;4477;48.736;9.176;2022-09-12T07:32:19;14.90;99.90
8882;DHT22;4477;48.736;9.176;2022-09-12T07:34:47;15.30;99.90
8882;DHT22;4477;48.736;9.176;2022-09-12T07:37:15;15.60;99.90
8882;DHT22;4477;48.736;9.176;2022-09-12T07:39:42;16.00;99.90
8882;DHT22;4477;48.736;9.176;2022-09-12T07:42:09;16.20;99.90
8882;DHT22;4477;48.736;9.176;2022-09-12T07:44:37;16.50;99.90
8882;DHT22;4477;48.736;9.176;2022-09-12T07:47:04;16.80;99.90
8882;DHT22;4477;48.736;9.176;2022-09-12T07:49:31;17.10;99.90
8882;DHT22;4477;48.736;9.176;2022-09-12T07:51:58;17.50;99.90
8882;DHT22;4477;48.736;9.176;2022-09-12T07:54:26;17.70;99.90
8882;DHT22;4477;48.736;9.176;2022-09-12T07:56:53;18.00;99.90
8882;DHT22;4477;48.736;9.176;2022-09-12T07:59:20;18.20;99.90
8882;DHT22;4477;48.736;9.176;2022-09-12T08:01:46;18.50;99.90
8882;DHT22;4477;48.736;9.176;2022-09-12T08:04:13;18.70;99.90
8882;DHT22;4477;48.736;9.176;2022-09-12T08:06:40;18.90;99.90
8882;DHT22;4477;48.736;9.176;2022-09-12T08:09:07;19.00;99.90
8882;DHT22;4477;48.736;9.176;2022-09-12T08:11:38;19.20;99.90
8882;DHT22;4477;48.736;9.176;2022-09-12T08:14:04;19.50;99.90
8882;DHT22;4477;48.736;9.176;2022-09-12T08:16:31;19.90;99.90
8882;DHT22;4477;48.736;9.176;2022-09-12T08:18:59;20.10;99.90
8882;DHT22;4477;48.736;9.176;2022-09-12T08:21:28;20.40;99.90
8882;DHT22;4477;48.736;9.176;2022-09-12T08:23:57;20.40;99.90
8882;DHT22;4477;48.736;9.176;2022-09-12T08:26:26;20.40;99.90
8882;DHT22;4477;48.736;9.176;2022-09-12T08:28:55;20.60;99.90
8882;DHT22;4477;48.736;9.176;2022-09-12T08:31:24;21.00;99.90
8882;DHT22;4477;48.736;9.176;2022-09-12T08:33:53;21.50;99.90
8882;DHT22;4477;48.736;9.176;2022-09-12T08:36:22;21.80;99.90
8882;DHT22;4477;48.736;9.176;2022-09-12T08:38:50;21.80;99.90
8882;DHT22;4477;48.736;9.176;2022-09-12T08:41:23;21.90;99.90
8882;DHT22;4477;48.736;9.176;2022-09-12T08:44:06;22.20;99.90
8882;DHT22;4477;48.736;9.176;2022-09-12T08:46:37;22.30;99.90
8882;DHT22;4477;48.736;9.176;2022-09-12T08:49:09;22.20;99.90
8882;DHT22;4477;48.736;9.176;2022-09-12T08:51:38;22.20;99.90
8882;DHT22;4477;48.736;9.176;2022-09-12T08:54:16;22.50;99.90
8882;DHT22;4477;48.736;9.176;2022-09-12T08:56:45;22.90;96.80
8882;DHT22;4477;48.736;9.176;2022-09-12T08:59:14;22.90;96.30
8882;DHT22;4477;48.736;9.176;2022-09-12T09:01:43;22.70;94.00
8882;DHT22;4477;48.736;9.176;2022-09-12T09:04:27;22.40;93.10
8882;DHT22;4477;48.736;9.176;2022-09-12T09:07:18;22.00;93.00
8882;DHT22;4477;48.736;9.176;2022-09-12T09:09:56;21.80;94.00
8882;DHT22;4477;48.736;9.176;2022-09-12T09:12:31;22.00;93.60
8882;DHT22;4477;48.736;9.176;2022-09-12T09:15:30;22.30;95.30
8882;DHT22;4477;48.736;9.176;2022-09-12T09:18:02;22.80;93.50
8882;DHT22;4477;48.736;9.176;2022-09-12T09:20:34;22.90;92.20
8882;DHT22;4477;48.736;9.176;2022-09-12T09:23:07;22.90;93.90
8882;DHT22;4477;48.736;9.176;2022-09-12T09:25:45;23.20;93.00
8882;DHT22;4477;48.736;9.176;2022-09-12T09:28:15;23.20;89.20
8882;DHT22;4477;48.736;9.176;2022-09-12T09:30:46;23.10;89.60
8882;DHT22;4477;48.736;9.176;2022-09-12T09:33:20;23.20;91.20
8882;DHT22;4477;48.736;9.176;2022-09-12T09:35:54;22.90;90.60
8882;DHT22;4477;48.736;9.176;2022-09-12T09:38:24;23.30;92.90
8882;DHT22;4477;48.736;9.176;2022-09-12T09:41:12;23.50;91.20
8882;DHT22;4477;48.736;9.176;2022-09-12T09:43:42;23.60;90.00
8882;DHT22;4477;48.736;9.176;2022-09-12T09:46:10;23.60;89.40
8882;DHT22;4477;48.736;9.176;2022-09-12T09:48:40;23.60;90.10
8882;DHT22;4477;48.736;9.176;2022-09-12T09:51:10;23.80;90.90
8882;DHT22;4477;48.736;9.176;2022-09-12T09:53:42;24.00;90.80
8882;DHT22;4477;48.736;9.176;2022-09-12T09:56:14;24.00;90.80
8882;DHT22;4477;48.736;9.176;2022-09-12T09:58:45;24.30;90.20
8882;DHT22;4477;48.736;9.176;2022-09-12T10:01:16;24.60;90.90
8882;DHT22;4477;48.736;9.176;2022-09-12T10:03:48;24.70;85.90
8882;DHT22;4477;48.736;9.176;2022-09-12T10:06:25;24.90;87.80
8882;DHT22;4477;48.736;9.176;2022-09-12T10:09:09;24.80;82.80
8882;DHT22;4477;48.736;9.176;2022-09-12T10:11:43;24.50;83.20
8882;DHT22;4477;48.736;9.176;2022-09-12T10:14:36;24.30;76.60
8882;DHT22;4477;48.736;9.176;2022-09-12T10:17:27;24.00;81.00
8882;DHT22;4477;48.736;9.176;2022-09-12T10:19:55;23.90;79.60
8882;DHT22;4477;48.736;9.176;2022-09-12T10:22:27;24.00;79.30
8882;DHT22;4477;48.736;9.176;2022-09-12T10:24:57;24.00;77.80
8882;DHT22;4477;48.736;9.176;2022-09-12T10:27:27;24.40;81.00
8882;DHT22;4477;48.736;9.176;2022-09-12T10:30:00;24.20;76.20
8882;DHT22;4477;48.736;9.176;2022-09-12T10:32:33;24.40;77.80
8882;DHT22;4477;48.736;9.176;2022-09-12T10:35:03;24.60;76.20
8882;DHT22;4477;48.736;9.176;2022-09-12T10:37:34;25.10;76.30
8882;DHT22;4477;48.736;9.176;2022-09-12T10:40:05;25.40;75.90
8882;DHT22;4477;48.736;9.176;2022-09-12T10:42:48;26.00;73.70
8882;DHT22;4477;48.736;9.176;2022-09-12T10:45:20;26.30;67.90
8882;DHT22;4477;48.736;9.176;2022-09-12T10:47:49;26.90;74.50
8882;DHT22;4477;48.736;9.176;2022-09-12T10:50:22;27.40;64.20
8882;DHT22;4477;48.736;9.176;2022-09-12T10:52:50;27.90;67.10
8882;DHT22;4477;48.736;9.176;2022-09-12T10:55:23;27.50;64.60
8882;DHT22;4477;48.736;9.176;2022-09-12T10:58:01;27.30;62.80
8882;DHT22;4477;48.736;9.176;2022-09-12T11:00:38;26.70;60.00
8882;DHT22;4477;48.736;9.176;2022-09-12T11:03:28;26.80;68.00
8882;DHT22;4477;48.736;9.176;2022-09-12T11:05:59;27.10;60.40
8882;DHT22;4477;48.736;9.176;2022-09-12T11:08:41;27.40;65.70
8882;DHT22;4477;48.736;9.176;2022-09-12T11:14:12;27.40;59.50
8882;DHT22;4477;48.736;9.176;2022-09-12T11:16:49;27.50;56.50
8882;DHT22;4477;48.736;9.176;2022-09-12T11:19:36;28.00;57.30
8882;DHT22;4477;48.736;9.176;2022-09-12T11:22:20;27.60;55.90
8882;DHT22;4477;48.736;9.176;2022-09-12T11:27:58;27.00;59.10
8882;DHT22;4477;48.736;9.176;2022-09-12T11:30:33;27.10;60.40
8882;DHT22;4477;48.736;9.176;2022-09-12T11:33:10;27.50;61.50
8882;DHT22;4477;48.736;9.176;2022-09-12T11:35:46;28.10;58.80
8882;DHT22;4477;48.736;9.176;2022-09-12T11:38:30;28.50;59.50
8882;DHT22;4477;48.736;9.176;2022-09-12T11:41:01;28.50;51.20
8882;DHT22;4477;48.736;9.176;2022-09-12T11:43:36;28.60;52.90
8882;DHT22;4477;48.736;9.176;2022-09-12T11:46:10;28.40;52.90
8882;DHT22;4477;48.736;9.176;2022-09-12T11:48:44;28.70;56.10
8882;DHT22;4477;48.736;9.176;2022-09-12T11:51:19;29.40;51.70
8882;DHT22;4477;48.736;9.176;2022-09-12T11:56:38;30.30;51.00
8882;DHT22;4477;48.736;9.176;2022-09-12T11:59:12;30.30;49.40
8882;DHT22;4477;48.736;9.176;2022-09-12T12:01:43;29.60;47.10
8882;DHT22;4477;48.736;9.176;2022-09-12T12:04:14;28.50;51.30
8882;DHT22;4477;48.736;9.176;2022-09-12T12:06:49;28.40;50.20
8882;DHT22;4477;48.736;9.176;2022-09-12T12:09:18;28.60;55.20
8882;DHT22;4477;48.736;9.176;2022-09-12T12:11:48;29.40;52.30
8882;DHT22;4477;48.736;9.176;2022-09-12T12:14:18;29.40;51.60
8882;DHT22;4477;48.736;9.176;2022-09-12T12:16:47;30.00;53.50
8882;DHT22;4477;48.736;9.176;2022-09-12T12:19:33;30.60;53.80
8882;DHT22;4477;48.736;9.176;2022-09-12T12:22:14;30.80;51.10
8882;DHT22;4477;48.736;9.176;2022-09-12T12:25:23;31.10;49.30
8882;DHT22;4477;48.736;9.176;2022-09-12T12:27:54;31.10;49.50
8882;DHT22;4477;48.736;9.176;2022-09-12T12:34:00;30.70;48.40
8882;DHT22;4477;48.736;9.176;2022-09-12T12:36:33;30.70;47.60
8882;DHT22;4477;48.736;9.176;2022-09-12T12:45:58;30.30;45.00
8882;DHT22;4477;48.736;9.176;2022-09-12T12:48:25;30.80;52.00
8882;DHT22;4477;48.736;9.176;2022-09-12T12:51:14;31.30;49.40
8882;DHT22;4477;48.736;9.176;2022-09-12T12:53:42;31.50;46.50
8882;DHT22;4477;48.736;9.176;2022-09-12T12:56:26;31.90;49.30
8882;DHT22;4477;48.736;9.176;2022-09-12T12:58:59;32.20;41.30
8882;DHT22;4477;48.736;9.176;2022-09-12T13:01:27;32.50;49.70
8882;DHT22;4477;48.736;9.176;2022-09-12T13:03:57;32.70;47.10
8882;DHT22;4477;48.736;9.176;2022-09-12T13:06:31;33.00;48.10
8882;DHT22;4477;48.736;9.176;2022-09-12T13:09:01;33.10;44.90
8882;DHT22;4477;48.736;9.176;2022-09-12T13:11:35;33.20;43.90
8882;DHT22;4477;48.736;9.176;2022-09-12T13:14:05;33.30;43.00
8882;DHT22;4477;48.736;9.176;2022-09-12T13:16:35;33.20;44.70
8882;DHT22;4477;48.736;9.176;2022-09-12T13:19:05;33.00;40.40
8882;DHT22;4477;48.736;9.176;2022-09-12T13:21:34;32.70;40.10
8882;DHT22;4477;48.736;9.176;2022-09-12T13:24:03;32.90;45.00
8882;DHT22;4477;48.736;9.176;2022-09-12T13:26:39;33.40;43.00
8882;DHT22;4477;48.736;9.176;2022-09-12T13:29:10;33.50;43.50
8882;DHT22;4477;48.736;9.176;2022-09-12T13:31:38;33.70;39.00
8882;DHT22;4477;48.736;9.176;2022-09-12T13:34:06;33.30;36.40
8882;DHT22;4477;48.736;9.176;2022-09-12T13:39:43;32.50;42.60
8882;DHT22;4477;48.736;9.176;2022-09-12T13:42:39;32.00;39.60
8882;DHT22;4477;48.736;9.176;2022-09-12T13:45:11;31.80;44.80
8882;DHT22;4477;48.736;9.176;2022-09-12T13:47:41;31.80;42.10
8882;DHT22;4477;48.736;9.176;2022-09-12T13:50:15;32.10;42.90
8882;DHT22;4477;48.736;9.176;2022-09-12T13:52:45;32.90;43.70
8882;DHT22;4477;48.736;9.176;2022-09-12T13:55:24;33.40;39.80
8882;DHT22;4477;48.736;9.176;2022-09-12T13:57:59;33.50;37.70
8882;DHT22;4477;48.736;9.176;2022-09-12T14:00:26;33.70;42.20
8882;DHT22;4477;48.736;9.176;2022-09-12T14:02:56;34.10;39.50
8882;DHT22;4477;48.736;9.176;2022-09-12T14:05:38;33.90;39.00
8882;DHT22;4477;48.736;9.176;2022-09-12T14:08:08;34.00;39.30
8882;DHT22;4477;48.736;9.176;2022-09-12T14:10:40;33.60;37.50
8882;DHT22;4477;48.736;9.176;2022-09-12T14:13:12;33.30;37.80
8882;DHT22;4477;48.736;9.176;2022-09-12T14:15:45;33.00;35.50
8882;DHT22;4477;48.736;9.176;2022-09-12T14:18:22;33.30;38.80
8882;DHT22;4477;48.736;9.176;2022-09-12T14:20:49;33.40;37.50
8882;DHT22;4477;48.736;9.176;2022-09-12T14:23:25;33.60;37.60
8882;DHT22;4477;48.736;9.176;2022-09-12T14:25:53;33.10;37.30
8882;DHT22;4477;48.736;9.176;2022-09-12T14:28:22;32.80;37.00
8882;DHT22;4477;48.736;9.176;2022-09-12T14:31:02;32.50;39.00
8882;DHT22;4477;48.736;9.176;2022-09-12T14:33:33;32.00;42.00
8882;DHT22;4477;48.736;9.176;2022-09-12T14:36:17;31.70;41.10
8882;DHT22;4477;48.736;9.176;2022-09-12T14:38:49;31.70;39.90
8882;DHT22;4477;48.736;9.176;2022-09-12T14:41:22;31.00;40.00
8882;DHT22;4477;48.736;9.176;2022-09-12T14:43:54;30.90;43.00
8882;DHT22;4477;48.736;9.176;2022-09-12T14:46:25;30.80;38.60
8882;DHT22;4477;48.736;9.176;2022-09-12T14:48:56;31.80;41.10
8882;DHT22;4477;48.736;9.176;2022-09-12T14:51:26;32.50;39.40
8882;DHT22;4477;48.736;9.176;2022-09-12T14:53:54;33.20;37.70
8882;DHT22;4477;48.736;9.176;2022-09-12T14:56:21;33.70;39.20
8882;DHT22;4477;48.736;9.176;2022-09-12T14:58:48;33.80;37.40
8882;DHT22;4477;48.736;9.176;2022-09-12T15:01:26;34.10;36.80
8882;DHT22;4477;48.736;9.176;2022-09-12T15:03:54;34.00;36.00
8882;DHT22;4477;48.736;9.176;2022-09-12T15:06:26;34.40;35.20
8882;DHT22;4477;48.736;9.176;2022-09-12T15:08:54;34.80;36.50
8882;DHT22;4477;48.736;9.176;2022-09-12T15:11:22;35.20;36.80
8882;DHT22;4477;48.736;9.176;2022-09-12T15:13:49;35.50;35.00
8882;DHT22;4477;48.736;9.176;2022-09-12T15:16:16;35.70;36.50
8882;DHT22;4477;48.736;9.176;2022-09-12T15:18:44;36.00;35.20
8882;DHT22;4477;48.736;9.176;2022-09-12T15:21:16;36.10;35.10
8882;DHT22;4477;48.736;9.176;2022-09-12T15:23:45;36.20;31.70
8882;DHT22;4477;48.736;9.176;2022-09-12T15:26:14;36.30;34.80
8882;DHT22;4477;48.736;9.176;2022-09-12T15:28:41;35.90;32.40
8882;DHT22;4477;48.736;9.176;2022-09-12T15:31:22;35.40;33.70
8882;DHT22;4477;48.736;9.176;2022-09-12T15:33:52;35.20;35.50
8882;DHT22;4477;48.736;9.176;2022-09-12T15:36:20;34.90;34.90
8882;DHT22;4477;48.736;9.176;2022-09-12T15:38:48;35.00;35.70
8882;DHT22;4477;48.736;9.176;2022-09-12T15:41:16;34.70;35.40
8882;DHT22;4477;48.736;9.176;2022-09-12T15:43:44;33.50;36.40
8882;DHT22;4477;48.736;9.176;2022-09-12T15:46:13;33.30;36.80
8882;DHT22;4477;48.736;9.176;2022-09-12T15:48:41;33.80;36.40
8882;DHT22;4477;48.736;9.176;2022-09-12T15:51:12;33.20;36.40
8882;DHT22;4477;48.736;9.176;2022-09-12T15:53:39;32.90;35.30
8882;DHT22;4477;48.736;9.176;2022-09-12T15:56:06;32.10;37.00
8882;DHT22;4477;48.736;9.176;2022-09-12T15:58:33;31.50;38.40
8882;DHT22;4477;48.736;9.176;2022-09-12T16:01:00;32.40;38.50
8882;DHT22;4477;48.736;9.176;2022-09-12T16:03:28;33.30;39.70
8882;DHT22;4477;48.736;9.176;2022-09-12T16:05:57;33.90;35.50
8882;DHT22;4477;48.736;9.176;2022-09-12T16:08:26;33.60;36.40
8882;DHT22;4477;48.736;9.176;2022-09-12T16:10:54;32.50;37.00
8882;DHT22;4477;48.736;9.176;2022-09-12T16:13:22;31.50;38.60
8882;DHT22;4477;48.736;9.176;2022-09-12T16:15:50;30.20;42.40
8882;DHT22;4477;48.736;9.176;2022-09-12T16:18:17;29.10;43.90
8882;DHT22;4477;48.736;9.176;2022-09-12T16:20:44;27.70;47.80
8882;DHT22;4477;48.736;9.176;2022-09-12T16:23:11;26.50;48.50
8882;DHT22;4477;48.736;9.176;2022-09-12T16:25:39;25.40;51.50
8882;DHT22;4477;48.736;9.176;2022-09-12T16:28:07;24.60;53.20
8882;DHT22;4477;48.736;9.176;2022-09-12T16:30:34;23.90;54.40
8882;DHT22;4477;48.736;9.176;2022-09-12T16:33:02;23.30;58.30
8882;DHT22;4477;48.736;9.176;2022-09-12T16:35:30;22.80;56.80
8882;DHT22;4477;48.736;9.176;2022-09-12T16:37:58;22.40;59.50
8882;DHT22;4477;48.736;9.176;2022-09-12T16:40:25;22.10;59.90
8882;DHT22;4477;48.736;9.176;2022-09-12T16:42:53;21.90;60.40
8882;DHT22;4477;48.736;9.176;2022-09-12T16:45:20;21.80;59.10
8882;DHT22;4477;48.736;9.176;2022-09-12T16:47:47;21.80;57.90
8882;DHT22;4477;48.736;9.176;2022-09-12T16:50:14;21.60;60.00
8882;DHT22;4477;48.736;9.176;2022-09-12T16:52:40;21.30;62.20
8882;DHT22;4477;48.736;9.176;2022-09-12T16:55:08;20.90;64.80
8882;DHT22;4477;48.736;9.176;2022-09-12T16:57:35;20.60;64.70
8882;DHT22;4477;48.736;9.176;2022-09-12T17:00:04;20.40;63.30
8882;DHT22;4477;48.736;9.176;2022-09-12T17:02:32;20.30;63.20